Time;durP1;ratioP1;P1;durP2;ratioP2;P2;SDS_P1;SDS_P2;PMS_P1;PMS_P2;Temp;Humidity;BMP_temperature;BMP_pressure;BME280_temperature;BME280_humidity;BME280_pressure;Samples;Min_cycle;Max_cycle;Signal;HPM_P1;HPM_P2
2022/09/14 00:00:08;;;;;;;;;;;23.40;99.90;23.40;98786.00;;;;336632;28;86638;-90
2022/09/14 00:00:20;;;;;;;;;;;23.40;99.90;23.50;98785.00;;;;339320;28;83481;-90
2022/09/14 00:00:32;;;;;;;;;;;23.50;99.90;23.40;98795.00;;;;339241;28;87565;-89
2022/09/14 00:00:43;;;;;;;;;;;23.40;99.90;23.40;98786.00;;;;340506;28;82628;-91
2022/09/14 00:00:55;;;;;;;;;;;23.40;99.90;23.40;98794.00;;;;339174;28;86312;-90
2022/09/14 00:01:30;;;;;;;;;;;23.40;99.90;23.50;98804.00;;;;336749;28;83495;-90
2022/09/14 00:01:46;;;;;;;;;;;23.50;99.90;23.50;98788.00;;;;337804;28;85187;-90
2022/09/14 00:01:58;;;;;;;;;;;23.40;99.90;23.50;98795.00;;;;336566;28;83541;-91
2022/09/14 00:02:10;;;;;;;;;;;23.50;99.90;23.40;98791.00;;;;336476;28;86022;-91
2022/09/14 00:02:22;;;;;;;;;;;23.50;99.90;23.40;98786.00;;;;337722;28;83605;-90
2022/09/14 00:02:34;;;;;;;;;;;23.40;99.90;23.40;98794.00;;;;340621;28;85969;-90
2022/09/14 00:02:46;;;;;;;;;;;23.40;99.90;23.40;98799.00;;;;336758;28;83439;-90
2022/09/14 00:02:57;;;;;;;;;;;23.40;99.90;23.40;98792.00;;;;336670;28;87315;-90
2022/09/14 00:03:09;;;;;;;;;;;23.50;99.90;23.40;98792.00;;;;337992;28;82503;-91
2022/09/14 00:03:21;;;;;;;;;;;23.40;99.90;23.40;98795.00;;;;336455;28;86535;-90
2022/09/14 00:03:33;;;;;;;;;;;23.40;99.90;23.40;98785.00;;;;338052;28;83255;-90
2022/09/14 00:03:45;;;;;;;;;;;23.40;99.90;23.40;98793.00;;;;339320;28;87456;-90
2022/09/14 00:04:14;;;;;;;;;;;23.40;99.90;23.50;98793.00;;;;339333;28;83618;-90
2022/09/14 00:04:26;;;;;;;;;;;23.40;99.90;23.40;98792.00;;;;340350;28;85447;-90
2022/09/14 00:04:39;;;;;;;;;;;23.40;99.90;23.40;98795.00;;;;336821;28;83497;-90
2022/09/14 00:04:51;;;;;;;;;;;23.40;99.90;23.40;98797.00;;;;338943;28;87055;-90
2022/09/14 00:05:02;;;;;;;;;;;23.40;99.90;23.40;98798.00;;;;336768;28;82667;-90
2022/09/14 00:05:14;;;;;;;;;;;23.40;99.90;23.40;98794.00;;;;337830;28;86454;-90
2022/09/14 00:05:26;;;;;;;;;;;23.40;99.90;23.50;98798.00;;;;339501;28;83447;-91
2022/09/14 00:05:39;;;;;;;;;;;23.40;99.90;23.50;98791.00;;;;336528;28;85067;-90
2022/09/14 00:05:50;;;;;;;;;;;23.40;99.90;23.40;98796.00;;;;336799;28;83498;-90
2022/09/14 00:06:04;;;;;;;;;;;23.40;99.90;23.40;98783.00;;;;337924;28;87246;-90
2022/09/14 00:06:16;;;;;;;;;;;23.40;99.90;23.40;98795.00;;;;338066;28;83444;-90
2022/09/14 00:06:28;;;;;;;;;;;23.40;99.90;23.50;98796.00;;;;338037;28;86076;-91
2022/09/14 00:06:40;;;;;;;;;;;23.40;99.90;23.50;98794.00;;;;335456;29;83478;-90
2022/09/14 00:06:51;;;;;;;;;;;23.40;99.90;23.40;98798.00;;;;339143;28;86411;-91
2022/09/14 00:07:03;;;;;;;;;;;23.40;99.90;23.40;98800.00;;;;339342;28;83471;-90
2022/09/14 00:07:15;;;;;;;;;;;23.40;99.90;23.40;98791.00;;;;338111;28;86383;-91
2022/09/14 00:07:27;;;;;;;;;;;23.40;99.90;23.40;98787.00;;;;339382;28;83496;-90
2022/09/14 00:07:38;;;;;;;;;;;23.40;99.90;23.40;98800.00;;;;337815;28;86507;-90
2022/09/14 00:07:50;;;;;;;;;;;23.40;99.90;23.40;98794.00;;;;339276;28;83486;-91
2022/09/14 00:08:02;;;;;;;;;;;23.40;99.90;23.40;98793.00;;;;336513;28;85481;-91
2022/09/14 00:08:14;;;;;;;;;;;23.40;99.90;23.50;98783.00;;;;339299;28;83361;-90
2022/09/14 00:08:25;;;;;;;;;;;23.50;99.90;23.50;98785.00;;;;339345;28;87176;-90
2022/09/14 00:08:37;;;;;;;;;;;23.40;99.90;23.40;98785.00;;;;336484;28;83574;-90
2022/09/14 00:08:52;;;;;;;;;;;23.40;99.90;23.40;98795.00;;;;337946;28;87247;-90
2022/09/14 00:09:09;;;;;;;;;;;23.40;99.90;23.40;98781.00;;;;336732;28;82503;-90
2022/09/14 00:09:22;;;;;;;;;;;23.40;99.90;23.40;98784.00;;;;339477;28;85618;-90
2022/09/14 00:09:34;;;;;;;;;;;23.40;99.90;23.40;98786.00;;;;340677;28;83517;-90
2022/09/14 00:09:47;;;;;;;;;;;23.40;99.90;23.40;98786.00;;;;339342;28;85970;-90
2022/09/14 00:09:59;;;;;;;;;;;23.40;99.90;23.40;98794.00;;;;338171;28;83346;-90
2022/09/14 00:10:11;;;;;;;;;;;23.40;99.90;23.40;98788.00;;;;340690;28;86241;-90
2022/09/14 00:10:23;;;;;;;;;;;23.40;99.90;23.40;98786.00;;;;338175;28;82564;-91
2022/09/14 00:10:44;;;;;;;;;;;23.40;99.90;23.50;98786.00;;;;339270;28;86776;-90
2022/09/14 00:10:56;;;;;;;;;;;23.40;99.90;23.50;98787.00;;;;339435;28;82564;-90
2022/09/14 00:11:10;;;;;;;;;;;23.40;99.90;23.50;98787.00;;;;337676;28;86415;-91
2022/09/14 00:11:23;;;;;;;;;;;23.40;99.90;23.50;98783.00;;;;338298;28;82458;-90
2022/09/14 00:11:35;;;;;;;;;;;23.40;99.90;23.40;98787.00;;;;340192;28;86154;-90
2022/09/14 00:11:47;;;;;;;;;;;23.40;99.90;23.50;98779.00;;;;335345;29;83578;-91
2022/09/14 00:11:59;;;;;;;;;;;23.40;99.90;23.50;98786.00;;;;338077;28;86791;-90
2022/09/14 00:12:11;;;;;;;;;;;23.40;99.90;23.50;98787.00;;;;338112;28;82679;-90
2022/09/14 00:12:23;;;;;;;;;;;23.40;99.90;23.50;98775.00;;;;339215;28;87369;-90
2022/09/14 00:12:35;;;;;;;;;;;23.40;99.90;23.60;98787.00;;;;338085;28;83436;-90
2022/09/14 00:12:47;;;;;;;;;;;23.40;99.90;23.60;98784.00;;;;337998;28;87656;-90
2022/09/14 00:12:59;;;;;;;;;;;23.50;99.90;23.50;98798.00;;;;339183;28;83626;-90
2022/09/14 00:13:12;;;;;;;;;;;23.50;99.90;23.50;98793.00;;;;337678;28;86154;-91
2022/09/14 00:13:24;;;;;;;;;;;23.40;99.90;23.50;98786.00;;;;335500;29;83332;-91
2022/09/14 00:13:35;;;;;;;;;;;23.40;99.90;23.50;98782.00;;;;337969;28;86229;-90
2022/09/14 00:13:47;;;;;;;;;;;23.50;99.90;23.50;98785.00;;;;339470;28;82600;-91
2022/09/14 00:14:00;;;;;;;;;;;23.40;99.90;23.50;98780.00;;;;335246;28;86513;-91
2022/09/14 00:14:11;;;;;;;;;;;23.40;99.90;23.40;98782.00;;;;338004;28;83580;-90
2022/09/14 00:14:23;;;;;;;;;;;23.50;99.90;23.40;98784.00;;;;336452;28;86477;-90
2022/09/14 00:14:35;;;;;;;;;;;23.50;99.90;23.50;98784.00;;;;338117;28;82486;-91
2022/09/14 00:14:47;;;;;;;;;;;23.40;99.90;23.50;98779.00;;;;338074;28;84906;-90
2022/09/14 00:14:58;;;;;;;;;;;23.50;99.90;23.50;98780.00;;;;339232;28;83537;-91
2022/09/14 00:15:10;;;;;;;;;;;23.50;99.90;23.50;98788.00;;;;338014;28;86632;-91
2022/09/14 00:15:22;;;;;;;;;;;23.50;99.90;23.50;98786.00;;;;336325;28;83565;-91
2022/09/14 00:15:36;;;;;;;;;;;23.50;99.90;23.50;98779.00;;;;336655;28;87104;-90
2022/09/14 00:15:48;;;;;;;;;;;23.50;99.90;23.50;98776.00;;;;337865;28;83658;-90
2022/09/14 00:16:07;;;;;;;;;;;23.50;99.90;23.50;98785.00;;;;339198;28;85466;-91
2022/09/14 00:16:27;;;;;;;;;;;23.50;99.90;23.50;98792.00;;;;339382;28;83456;-90
2022/09/14 00:16:39;;;;;;;;;;;23.50;99.90;23.50;98785.00;;;;335149;29;87099;-90
2022/09/14 00:16:51;;;;;;;;;;;23.50;99.90;23.50;98778.00;;;;335510;29;83330;-90
2022/09/14 00:17:03;;;;;;;;;;;23.40;99.90;23.50;98784.00;;;;336680;28;86501;-91
2022/09/14 00:17:15;;;;;;;;;;;23.50;99.90;23.50;98782.00;;;;336672;28;83479;-90
2022/09/14 00:17:27;;;;;;;;;;;23.50;99.90;23.50;98780.00;;;;339308;28;86092;-90
2022/09/14 00:17:38;;;;;;;;;;;23.50;99.90;23.50;98779.00;;;;336774;28;82648;-90
2022/09/14 00:17:50;;;;;;;;;;;23.50;99.90;23.60;98785.00;;;;336380;28;85410;-91
2022/09/14 00:18:02;;;;;;;;;;;23.50;99.90;23.50;98784.00;;;;336822;28;83441;-90
2022/09/14 00:18:14;;;;;;;;;;;23.50;99.90;23.50;98785.00;;;;338906;28;86553;-90
2022/09/14 00:18:27;;;;;;;;;;;23.50;99.90;23.60;98775.00;;;;336655;28;83494;-90
2022/09/14 00:18:39;;;;;;;;;;;23.50;99.90;23.60;98779.00;;;;335268;29;87924;-90
2022/09/14 00:18:52;;;;;;;;;;;23.50;99.90;23.50;98783.00;;;;336850;28;83365;-90
2022/09/14 00:19:14;;;;;;;;;;;23.50;99.90;23.50;98785.00;;;;336690;28;84981;-90
2022/09/14 00:19:26;;;;;;;;;;;23.50;99.90;23.50;98785.00;;;;335541;29;83385;-90
2022/09/14 00:19:38;;;;;;;;;;;23.50;99.90;23.50;98791.00;;;;339005;28;86729;-90
2022/09/14 00:19:51;;;;;;;;;;;23.50;99.90;23.50;98792.00;;;;338004;28;82591;-91
2022/09/14 00:20:03;;;;;;;;;;;23.50;99.90;23.50;98782.00;;;;339188;28;85360;-91
2022/09/14 00:20:15;;;;;;;;;;;23.50;99.90;23.50;98793.00;;;;339371;28;83444;-91
2022/09/14 00:20:26;;;;;;;;;;;23.50;99.90;23.50;98788.00;;;;336469;28;85057;-91
2022/09/14 00:20:38;;;;;;;;;;;23.50;99.90;23.60;98786.00;;;;335478;29;83459;-90
2022/09/14 00:20:50;;;;;;;;;;;23.50;99.90;23.50;98787.00;;;;339157;28;85400;-90
2022/09/14 00:21:03;;;;;;;;;;;23.50;99.90;23.50;98780.00;;;;338039;28;83563;-89
2022/09/14 00:21:15;;;;;;;;;;;23.50;99.90;23.50;98783.00;;;;338800;28;86505;-91
2022/09/14 00:21:27;;;;;;;;;;;23.50;99.90;23.50;98788.00;;;;339470;28;82461;-90
2022/09/14 00:21:41;;;;;;;;;;;23.50;99.90;23.50;98793.00;;;;337938;28;86235;-90
2022/09/14 00:21:57;;;;;;;;;;;23.50;99.90;23.50;98783.00;;;;339384;28;82511;-91
2022/09/14 00:22:09;;;;;;;;;;;23.50;99.90;23.50;98787.00;;;;336654;28;87775;-90
2022/09/14 00:22:20;;;;;;;;;;;23.50;99.90;23.50;98781.00;;;;337814;28;82657;-90
2022/09/14 00:22:32;;;;;;;;;;;23.50;99.90;23.50;98785.00;;;;339092;28;85630;-91
2022/09/14 00:22:44;;;;;;;;;;;23.50;99.90;23.50;98782.00;;;;336670;28;82581;-90
2022/09/14 00:22:56;;;;;;;;;;;23.50;99.90;23.50;98785.00;;;;337971;28;87478;-90
2022/09/14 00:23:07;;;;;;;;;;;23.50;99.90;23.50;98776.00;;;;336800;28;83408;-91
2022/09/14 00:23:19;;;;;;;;;;;23.50;99.90;23.50;98782.00;;;;337986;28;86984;-91
2022/09/14 00:23:33;;;;;;;;;;;23.50;99.90;23.50;98778.00;;;;336764;28;82501;-90
2022/09/14 00:23:45;;;;;;;;;;;23.50;99.90;23.50;98777.00;;;;339254;28;87526;-91
2022/09/14 00:23:56;;;;;;;;;;;23.50;99.90;23.60;98776.00;;;;338152;28;82524;-90
2022/09/14 00:24:09;;;;;;;;;;;23.50;99.90;23.60;98780.00;;;;340663;28;86436;-91
2022/09/14 00:24:21;;;;;;;;;;;23.50;99.90;23.70;98786.00;;;;339298;28;82576;-91
2022/09/14 00:24:33;;;;;;;;;;;23.50;99.90;23.60;98779.00;;;;338016;28;84549;-91
2022/09/14 00:24:45;;;;;;;;;;;23.50;99.90;23.60;98778.00;;;;339036;28;83064;-90
2022/09/14 00:24:57;;;;;;;;;;;23.50;99.90;23.50;98780.00;;;;337915;28;86593;-90
2022/09/14 00:25:09;;;;;;;;;;;23.50;99.90;23.50;98780.00;;;;338053;28;82658;-90
2022/09/14 00:25:20;;;;;;;;;;;23.50;99.90;23.50;98779.00;;;;337775;28;86684;-90
2022/09/14 00:25:32;;;;;;;;;;;23.50;99.90;23.50;98774.00;;;;335532;29;82515;-91
2022/09/14 00:25:44;;;;;;;;;;;23.50;99.90;23.50;98774.00;;;;337940;28;87384;-90
2022/09/14 00:26:01;;;;;;;;;;;23.50;99.90;23.50;98773.00;;;;339405;28;83443;-90
2022/09/14 00:26:15;;;;;;;;;;;23.50;99.90;23.60;98775.00;;;;337759;28;87264;-91
2022/09/14 00:26:27;;;;;;;;;;;23.50;99.90;23.60;98768.00;;;;338160;28;82581;-90
2022/09/14 00:26:39;;;;;;;;;;;23.50;99.90;23.50;98773.00;;;;337961;28;86570;-91
2022/09/14 00:26:51;;;;;;;;;;;23.50;99.90;23.50;98770.00;;;;336804;28;83497;-91
2022/09/14 00:27:03;;;;;;;;;;;23.50;99.90;23.50;98775.00;;;;337937;28;86759;-91
2022/09/14 00:27:14;;;;;;;;;;;23.50;99.90;23.50;98770.00;;;;338145;28;82548;-90
2022/09/14 00:27:26;;;;;;;;;;;23.50;99.90;23.50;98774.00;;;;337878;28;86325;-90
2022/09/14 00:27:38;;;;;;;;;;;23.50;99.90;23.50;98773.00;;;;335410;29;83362;-90
2022/09/14 00:27:51;;;;;;;;;;;23.50;99.90;23.50;98776.00;;;;339269;28;87073;-91
2022/09/14 00:28:03;;;;;;;;;;;23.50;99.90;23.50;98777.00;;;;338115;28;82528;-91
2022/09/14 00:28:15;;;;;;;;;;;23.50;99.90;23.50;98771.00;;;;339217;28;87283;-91
2022/09/14 00:28:27;;;;;;;;;;;23.50;99.90;23.50;98775.00;;;;340825;28;82546;-90
2022/09/14 00:28:43;;;;;;;;;;;23.50;99.90;23.50;98772.00;;;;337926;28;88013;-91
2022/09/14 00:28:56;;;;;;;;;;;23.50;99.90;23.50;98765.00;;;;338017;28;82488;-90
2022/09/14 00:29:09;;;;;;;;;;;23.50;99.90;23.50;98770.00;;;;337936;28;87355;-90
2022/09/14 00:29:20;;;;;;;;;;;23.50;99.90;23.50;98765.00;;;;339481;28;83365;-90
2022/09/14 00:29:32;;;;;;;;;;;23.50;99.90;23.50;98771.00;;;;339257;28;86094;-90
2022/09/14 00:29:47;;;;;;;;;;;23.50;99.90;23.50;98762.00;;;;336765;28;83517;-90
2022/09/14 00:29:59;;;;;;;;;;;23.50;99.90;23.50;98764.00;;;;336500;28;87522;-90
2022/09/14 00:30:11;;;;;;;;;;;23.50;99.90;23.50;98772.00;;;;339447;28;83612;-90
2022/09/14 00:30:23;;;;;;;;;;;23.50;99.90;23.50;98770.00;;;;337787;28;87523;-91
2022/09/14 00:30:34;;;;;;;;;;;23.50;99.90;23.50;98768.00;;;;334043;29;83460;-91
2022/09/14 00:30:46;;;;;;;;;;;23.50;99.90;23.50;98764.00;;;;336065;28;86121;-90
2022/09/14 00:30:58;;;;;;;;;;;23.50;99.90;23.50;98765.00;;;;339290;28;83573;-90
2022/09/14 00:31:10;;;;;;;;;;;23.50;99.90;23.60;98764.00;;;;339396;28;86883;-90
2022/09/14 00:31:22;;;;;;;;;;;23.50;99.90;23.60;98767.00;;;;339371;28;83461;-91
2022/09/14 00:31:35;;;;;;;;;;;23.50;99.90;23.60;98769.00;;;;336560;28;87504;-90
2022/09/14 00:31:47;;;;;;;;;;;23.50;99.90;23.60;98764.00;;;;336748;28;83517;-90
2022/09/14 00:31:59;;;;;;;;;;;23.50;99.90;23.60;98759.00;;;;336695;28;86166;-91
2022/09/14 00:32:11;;;;;;;;;;;23.50;99.90;23.60;98763.00;;;;339373;28;83405;-90
2022/09/14 00:32:22;;;;;;;;;;;23.50;99.90;23.60;98760.00;;;;339184;28;86985;-90
2022/09/14 00:32:34;;;;;;;;;;;23.50;99.90;23.60;98762.00;;;;340732;28;82508;-90
2022/09/14 00:32:46;;;;;;;;;;;23.50;99.90;23.60;98762.00;;;;336728;28;86284;-90
2022/09/14 00:32:57;;;;;;;;;;;23.50;99.90;23.60;98767.00;;;;338077;28;83671;-91
2022/09/14 00:33:09;;;;;;;;;;;23.60;99.90;23.60;98773.00;;;;337954;28;87716;-91
2022/09/14 00:33:21;;;;;;;;;;;23.60;99.90;23.70;98764.00;;;;339276;28;82608;-90
2022/09/14 00:33:33;;;;;;;;;;;23.60;99.90;23.70;98764.00;;;;337726;28;86254;-91
2022/09/14 00:33:46;;;;;;;;;;;23.60;99.90;23.60;98761.00;;;;338034;28;83521;-90
2022/09/14 00:33:58;;;;;;;;;;;23.60;99.90;23.60;98768.00;;;;337983;28;87004;-90
2022/09/14 00:34:13;;;;;;;;;;;23.60;99.90;23.60;98757.00;;;;339395;28;83534;-91
2022/09/14 00:34:25;;;;;;;;;;;23.60;99.90;23.60;98770.00;;;;339184;28;87470;-90
2022/09/14 00:34:38;;;;;;;;;;;23.60;99.90;23.60;98764.00;;;;339379;28;83526;-90
2022/09/14 00:34:49;;;;;;;;;;;23.60;99.90;23.60;98765.00;;;;337926;28;86905;-90
2022/09/14 00:35:01;;;;;;;;;;;23.60;99.90;23.60;98761.00;;;;339326;28;82733;-90
2022/09/14 00:35:13;;;;;;;;;;;23.60;99.90;23.60;98773.00;;;;336658;28;86753;-90
2022/09/14 00:35:25;;;;;;;;;;;23.60;99.90;23.70;98764.00;;;;336606;28;83546;-91
2022/09/14 00:35:37;;;;;;;;;;;23.60;99.90;23.70;98774.00;;;;336520;28;86028;-90
2022/09/14 00:35:48;;;;;;;;;;;23.60;99.90;23.70;98767.00;;;;336780;28;83500;-91
2022/09/14 00:36:05;;;;;;;;;;;23.60;99.90;23.60;98770.00;;;;335330;29;87933;-90
2022/09/14 00:36:24;;;;;;;;;;;23.60;99.90;23.70;98764.00;;;;334177;29;82530;-90
2022/09/14 00:36:41;;;;;;;;;;;23.60;99.90;23.70;98764.00;;;;339305;28;86287;-89
2022/09/14 00:36:53;;;;;;;;;;;23.60;99.90;23.70;98766.00;;;;338075;28;82575;-90
2022/09/14 00:37:05;;;;;;;;;;;23.60;99.90;23.70;98765.00;;;;335298;29;87261;-90
2022/09/14 00:37:17;;;;;;;;;;;23.60;99.90;23.70;98758.00;;;;339491;28;82492;-90
2022/09/14 00:37:28;;;;;;;;;;;23.70;99.90;23.70;98766.00;;;;337882;28;86773;-90
2022/09/14 00:37:40;;;;;;;;;;;23.60;99.90;23.80;98766.00;;;;339371;28;83537;-90
2022/09/14 00:37:52;;;;;;;;;;;23.60;99.90;23.80;98764.00;;;;339074;28;86432;-90
2022/09/14 00:38:05;;;;;;;;;;;23.70;99.90;23.70;98754.00;;;;336834;28;82551;-90
2022/09/14 00:38:16;;;;;;;;;;;23.70;99.90;23.70;98764.00;;;;338987;28;87377;-91
2022/09/14 00:38:28;;;;;;;;;;;23.70;99.90;23.70;98766.00;;;;337997;28;83782;-90
2022/09/14 00:38:40;;;;;;;;;;;23.60;99.90;23.70;98760.00;;;;336613;28;87826;-91
2022/09/14 00:38:55;;;;;;;;;;;23.60;99.90;23.70;98766.00;;;;336700;28;82486;-91
2022/09/14 00:39:07;;;;;;;;;;;23.70;99.90;23.70;98760.00;;;;339119;28;87811;-90
2022/09/14 00:39:22;;;;;;;;;;;23.70;99.90;23.70;98752.00;;;;338036;28;83511;-91
2022/09/14 00:39:34;;;;;;;;;;;23.70;99.90;23.70;98762.00;;;;337957;28;84665;-90
2022/09/14 00:39:46;;;;;;;;;;;23.60;99.90;23.80;98760.00;;;;338108;28;83539;-90
2022/09/14 00:39:57;;;;;;;;;;;23.60;99.90;23.80;98756.00;;;;337930;28;87387;-90
2022/09/14 00:40:11;;;;;;;;;;;23.70;99.90;23.70;98758.00;;;;336799;28;83610;-91
2022/09/14 00:40:23;;;;;;;;;;;23.70;99.90;23.70;98757.00;;;;337962;28;87223;-91
2022/09/14 00:40:35;;;;;;;;;;;23.60;99.90;23.70;98762.00;;;;336723;28;83481;-91
2022/09/14 00:40:58;;;;;;;;;;;23.70;99.90;23.70;98760.00;;;;335392;29;86490;-90
2022/09/14 00:41:12;;;;;;;;;;;23.60;99.90;23.70;98759.00;;;;337887;28;83383;-90
2022/09/14 00:41:28;;;;;;;;;;;23.70;99.90;23.70;98761.00;;;;336683;28;86393;-91
2022/09/14 00:41:41;;;;;;;;;;;23.60;99.90;23.70;98759.00;;;;336697;28;84389;-91
2022/09/14 00:41:53;;;;;;;;;;;23.70;99.90;23.70;98758.00;;;;337980;28;87534;-90
2022/09/14 00:42:05;;;;;;;;;;;23.60;99.90;23.70;98762.00;;;;336763;28;82850;-91
2022/09/14 00:42:18;;;;;;;;;;;23.70;99.90;23.70;98768.00;;;;337842;28;87323;-90
2022/09/14 00:42:30;;;;;;;;;;;23.60;99.90;23.60;98749.00;;;;338090;28;83302;-91
2022/09/14 00:42:41;;;;;;;;;;;23.60;99.90;23.60;98760.00;;;;335478;29;86951;-91
2022/09/14 00:42:53;;;;;;;;;;;23.70;99.90;23.70;98758.00;;;;336745;28;82547;-91
2022/09/14 00:43:11;;;;;;;;;;;23.70;99.90;23.60;98756.00;;;;337936;28;86723;-91
2022/09/14 00:43:23;;;;;;;;;;;23.60;99.90;23.60;98757.00;;;;336736;28;82615;-91
2022/09/14 00:43:50;;;;;;;;;;;23.70;99.90;23.70;98762.00;;;;340390;28;87181;-90
2022/09/14 00:44:03;;;;;;;;;;;23.70;99.90;23.70;98757.00;;;;340725;28;83436;-91
2022/09/14 00:44:15;;;;;;;;;;;23.70;99.90;23.70;98759.00;;;;336626;28;87486;-91
2022/09/14 00:44:27;;;;;;;;;;;23.60;99.90;23.70;98760.00;;;;336780;28;83567;-91
2022/09/14 00:44:38;;;;;;;;;;;23.70;99.90;23.70;98747.00;;;;337907;28;87466;-91
2022/09/14 00:44:51;;;;;;;;;;;23.70;99.90;23.70;98757.00;;;;336584;28;83285;-90
2022/09/14 00:45:13;;;;;;;;;;;23.60;99.90;23.70;98763.00;;;;337978;28;86173;-91
2022/09/14 00:45:26;;;;;;;;;;;23.60;99.90;23.70;98754.00;;;;340721;28;83380;-91
2022/09/14 00:45:38;;;;;;;;;;;23.70;99.90;23.70;98762.00;;;;333982;29;86392;-90
2022/09/14 00:45:49;;;;;;;;;;;23.70;99.90;23.60;98754.00;;;;336805;28;82513;-90
2022/09/14 00:46:01;;;;;;;;;;;23.60;99.90;23.60;98754.00;;;;340573;28;87239;-91
2022/09/14 00:46:13;;;;;;;;;;;23.70;99.90;23.60;98763.00;;;;337992;28;82539;-90
2022/09/14 00:46:26;;;;;;;;;;;23.60;99.90;23.70;98769.00;;;;336568;28;86089;-90
2022/09/14 00:46:42;;;;;;;;;;;23.60;99.90;23.70;98761.00;;;;339377;28;83504;-91
2022/09/14 00:46:55;;;;;;;;;;;23.70;99.90;23.70;98767.00;;;;336610;28;86382;-90
2022/09/14 00:47:07;;;;;;;;;;;23.60;99.90;23.70;98763.00;;;;338069;28;83510;-91
2022/09/14 00:47:19;;;;;;;;;;;23.60;99.90;23.70;98759.00;;;;340299;28;85896;-91
2022/09/14 00:47:31;;;;;;;;;;;23.60;99.90;23.60;98755.00;;;;340851;28;83346;-90
2022/09/14 00:47:43;;;;;;;;;;;23.60;99.90;23.70;98763.00;;;;337731;28;86154;-91
2022/09/14 00:47:55;;;;;;;;;;;23.60;99.90;23.60;98762.00;;;;340817;28;83408;-90
2022/09/14 00:48:07;;;;;;;;;;;23.60;99.90;23.60;98758.00;;;;337898;28;87299;-90
2022/09/14 00:48:19;;;;;;;;;;;23.60;99.90;23.60;98763.00;;;;338124;28;82592;-90
2022/09/14 00:48:31;;;;;;;;;;;23.60;99.90;23.70;98765.00;;;;340395;28;87736;-90
2022/09/14 00:48:42;;;;;;;;;;;23.60;99.90;23.60;98769.00;;;;339361;28;83480;-90
2022/09/14 00:48:56;;;;;;;;;;;23.60;99.90;23.70;98768.00;;;;340469;28;86182;-90
2022/09/14 00:49:25;;;;;;;;;;;23.60;99.90;23.60;98775.00;;;;340616;28;83636;-91
2022/09/14 00:49:38;;;;;;;;;;;23.60;99.90;23.60;98769.00;;;;339259;28;87482;-90
2022/09/14 00:49:50;;;;;;;;;;;23.60;99.90;23.60;98767.00;;;;342049;28;83431;-90
2022/09/14 00:50:03;;;;;;;;;;;23.60;99.90;23.60;98755.00;;;;340594;28;87169;-90
2022/09/14 00:50:14;;;;;;;;;;;23.60;99.90;23.60;98771.00;;;;339382;28;83495;-90
2022/09/14 00:50:27;;;;;;;;;;;23.60;99.90;23.60;98758.00;;;;340599;28;85358;-90
2022/09/14 00:50:39;;;;;;;;;;;23.60;99.90;23.60;98766.00;;;;337775;28;84020;-91
2022/09/14 00:50:51;;;;;;;;;;;23.60;99.90;23.60;98769.00;;;;340674;28;87265;-89
2022/09/14 00:51:03;;;;;;;;;;;23.60;99.90;23.60;98766.00;;;;342045;28;83527;-90
2022/09/14 00:51:15;;;;;;;;;;;23.60;99.90;23.60;98768.00;;;;335336;29;86577;-90
2022/09/14 00:51:28;;;;;;;;;;;23.60;99.90;23.60;98759.00;;;;336814;28;82582;-91
2022/09/14 00:51:45;;;;;;;;;;;23.60;99.90;23.60;98761.00;;;;339172;28;87328;-90
2022/09/14 00:52:07;;;;;;;;;;;23.60;99.90;23.50;98763.00;;;;338048;28;83231;-90
2022/09/14 00:52:24;;;;;;;;;;;23.60;99.90;23.60;98763.00;;;;340461;28;86257;-91
2022/09/14 00:52:37;;;;;;;;;;;23.60;99.90;23.50;98767.00;;;;338094;28;83351;-91
2022/09/14 00:52:49;;;;;;;;;;;23.60;99.90;23.60;98768.00;;;;340650;28;85813;-90
2022/09/14 00:53:00;;;;;;;;;;;23.60;99.90;23.60;98770.00;;;;340647;28;83488;-90
2022/09/14 00:53:12;;;;;;;;;;;23.60;99.90;23.50;98766.00;;;;336617;28;87434;-91
2022/09/14 00:53:24;;;;;;;;;;;23.60;99.90;23.60;98762.00;;;;339207;28;83598;-90
2022/09/14 00:53:36;;;;;;;;;;;23.60;99.90;23.60;98767.00;;;;338903;28;86929;-90
2022/09/14 00:53:47;;;;;;;;;;;23.60;99.90;23.60;98771.00;;;;336716;28;83414;-91
2022/09/14 00:54:02;;;;;;;;;;;23.50;99.90;23.60;98765.00;;;;339328;28;86756;-91
2022/09/14 00:54:14;;;;;;;;;;;23.60;99.90;23.60;98761.00;;;;339303;28;83398;-91
2022/09/14 00:54:26;;;;;;;;;;;23.60;99.90;23.60;98765.00;;;;339225;28;86321;-91
2022/09/14 00:54:42;;;;;;;;;;;23.60;99.90;23.60;98766.00;;;;339473;28;82531;-91
2022/09/14 00:54:56;;;;;;;;;;;23.60;99.90;23.70;98763.00;;;;336633;28;84039;-91
2022/09/14 00:55:11;;;;;;;;;;;23.50;99.90;23.60;98764.00;;;;335334;29;82644;-91
2022/09/14 00:55:23;;;;;;;;;;;23.50;99.90;23.60;98763.00;;;;336617;28;88319;-91
2022/09/14 00:55:35;;;;;;;;;;;23.60;99.90;23.60;98760.00;;;;336736;28;83470;-90
2022/09/14 00:55:47;;;;;;;;;;;23.60;99.90;23.70;98766.00;;;;335286;29;86330;-91
2022/09/14 00:55:59;;;;;;;;;;;23.60;99.90;23.70;98754.00;;;;336755;28;82517;-90
2022/09/14 00:56:11;;;;;;;;;;;23.60;99.90;23.60;98759.00;;;;339234;28;87419;-90
2022/09/14 00:56:22;;;;;;;;;;;23.60;99.90;23.70;98769.00;;;;339383;28;83452;-90
2022/09/14 00:56:34;;;;;;;;;;;23.60;99.90;23.60;98763.00;;;;340457;28;86480;-91
2022/09/14 00:56:47;;;;;;;;;;;23.60;99.90;23.60;98760.00;;;;339126;28;82551;-91
2022/09/14 00:56:58;;;;;;;;;;;23.60;99.90;23.60;98761.00;;;;336575;28;87266;-90
2022/09/14 00:57:10;;;;;;;;;;;23.60;99.90;23.60;98761.00;;;;338084;28;83089;-90
2022/09/14 00:57:22;;;;;;;;;;;23.50;99.90;23.60;98761.00;;;;340585;28;86624;-91
2022/09/14 00:57:43;;;;;;;;;;;23.50;99.90;23.50;98758.00;;;;340718;28;83422;-90
2022/09/14 00:57:54;;;;;;;;;;;23.50;99.90;23.60;98756.00;;;;340702;28;86241;-91
2022/09/14 00:58:06;;;;;;;;;;;23.60;99.90;23.60;98767.00;;;;335443;29;83056;-90
2022/09/14 00:58:18;;;;;;;;;;;23.50;99.90;23.60;98758.00;;;;339202;28;87566;-90
2022/09/14 00:58:30;;;;;;;;;;;23.60;99.90;23.60;98762.00;;;;340092;28;83514;-90
2022/09/14 00:58:43;;;;;;;;;;;23.60;99.90;23.60;98762.00;;;;341897;28;86353;-90
2022/09/14 00:58:56;;;;;;;;;;;23.50;99.90;23.60;98760.00;;;;343163;28;82493;-90
2022/09/14 00:59:12;;;;;;;;;;;23.60;99.90;23.60;98766.00;;;;341905;28;86602;-91
2022/09/14 00:59:25;;;;;;;;;;;23.50;99.90;23.60;98772.00;;;;340677;28;83386;-90
2022/09/14 00:59:38;;;;;;;;;;;23.50;99.90;23.60;98761.00;;;;340608;28;86604;-90
2022/09/14 00:59:51;;;;;;;;;;;23.60;99.90;23.60;98770.00;;;;339441;28;83604;-91
2022/09/14 01:00:04;;;;;;;;;;;23.60;99.90;23.60;98763.00;;;;337992;28;87140;-90
2022/09/14 01:00:20;;;;;;;;;;;23.60;99.90;23.70;98772.00;;;;339325;28;83433;-91
2022/09/14 01:00:31;;;;;;;;;;;23.60;99.90;23.70;98767.00;;;;337911;28;85976;-90
2022/09/14 01:00:43;;;;;;;;;;;23.60;99.90;23.70;98763.00;;;;342085;28;83451;-90
2022/09/14 01:00:56;;;;;;;;;;;23.60;99.90;23.60;98767.00;;;;339225;28;88054;-91
2022/09/14 01:01:08;;;;;;;;;;;23.60;99.90;23.60;98770.00;;;;339336;28;82527;-90
2022/09/14 01:01:20;;;;;;;;;;;23.60;99.90;23.60;98766.00;;;;343260;28;86333;-90
2022/09/14 01:01:32;;;;;;;;;;;23.60;99.90;23.60;98761.00;;;;340691;28;82481;-91
2022/09/14 01:01:44;;;;;;;;;;;23.60;99.90;23.60;98765.00;;;;341621;28;87384;-90
2022/09/14 01:01:56;;;;;;;;;;;23.60;99.90;23.70;98767.00;;;;342113;28;82456;-91
2022/09/14 01:02:08;;;;;;;;;;;23.60;99.90;23.70;98761.00;;;;340626;28;87467;-90
2022/09/14 01:02:21;;;;;;;;;;;23.60;99.90;23.60;98759.00;;;;343411;28;82512;-90
2022/09/14 01:02:33;;;;;;;;;;;23.60;99.90;23.50;98764.00;;;;340574;28;87023;-91
2022/09/14 01:02:45;;;;;;;;;;;23.60;99.90;23.50;98764.00;;;;341841;28;83444;-90
2022/09/14 01:02:57;;;;;;;;;;;23.60;99.90;23.50;98764.00;;;;341967;28;86358;-91
2022/09/14 01:03:08;;;;;;;;;;;23.60;99.90;23.60;98764.00;;;;342013;28;83024;-90
2022/09/14 01:03:20;;;;;;;;;;;23.50;99.90;23.70;98760.00;;;;341749;28;85145;-90
2022/09/14 01:03:32;;;;;;;;;;;23.60;99.90;23.60;98768.00;;;;342040;28;83575;-90
2022/09/14 01:03:44;;;;;;;;;;;23.60;99.90;23.60;98771.00;;;;340362;28;86536;-91